createdAt,value
2023-05-09T00:01:18.011Z,100677.00
2023-05-09T00:03:21.855Z,100634.44
2023-05-09T00:05:24.446Z,100627.72
2023-05-09T00:07:26.622Z,100648.59
2023-05-09T00:09:29.185Z,100657.69
2023-05-09T00:11:31.762Z,100604.34
2023-05-09T00:13:35.215Z,100661.03
2023-05-09T00:15:37.482Z,100641.97
2023-05-09T00:17:40.592Z,100596.19
2023-05-09T00:19:43.895Z,100592.88
2023-05-09T00:21:46.706Z,100670.16
2023-05-09T00:23:48.913Z,100639.50
2023-05-09T00:25:51.584Z,100624.56
2023-05-09T00:27:54.191Z,100612.97
2023-05-09T00:29:57.166Z,100626.16
2023-05-09T00:31:59.432Z,100558.81
2023-05-09T00:34:02.189Z,100531.16
2023-05-09T00:36:04.865Z,100620.97
2023-05-09T00:38:07.181Z,100646.66
2023-05-09T00:40:10.159Z,100638.28
2023-05-09T00:42:12.808Z,100614.56
2023-05-09T00:44:15.188Z,100559.81
2023-05-09T00:46:17.668Z,100592.31
2023-05-09T00:48:20.097Z,100612.59
2023-05-09T00:50:22.599Z,100635.91
2023-05-09T00:52:26.333Z,100613.25
2023-05-09T00:54:29.154Z,100642.47
2023-05-09T00:56:31.704Z,100584.22
2023-05-09T00:58:34.056Z,100560.16
2023-05-09T01:00:37.010Z,100589.00
2023-05-09T01:02:42.161Z,100603.38
2023-05-09T01:04:46.191Z,100592.63
2023-05-09T01:07:02.820Z,100616.94
2023-05-09T01:09:33.145Z,100600.19
2023-05-09T01:11:45.242Z,100580.06
2023-05-09T01:13:57.376Z,100534.25
2023-05-09T01:16:35.482Z,100631.44
2023-05-09T01:18:46.244Z,100518.13
2023-05-09T01:21:04.209Z,100634.81
2023-05-09T01:23:42.578Z,100630.53
2023-05-09T01:25:56.072Z,100582.53
2023-05-09T01:28:16.053Z,100559.22
2023-05-09T01:30:20.503Z,100539.19
2023-05-09T01:32:29.093Z,100568.03
2023-05-09T01:34:34.231Z,100538.22
2023-05-09T01:36:39.271Z,100587.91
2023-05-09T01:38:45.019Z,100600.94
2023-05-09T01:40:51.093Z,100510.19
2023-05-09T01:43:04.182Z,100569.00
2023-05-09T01:45:08.729Z,100587.31
2023-05-09T01:47:12.498Z,100568.03
2023-05-09T01:49:17.914Z,100561.66
2023-05-09T01:51:21.894Z,100546.22
2023-05-09T01:53:27.676Z,100566.09
2023-05-09T01:55:34.379Z,100560.97
2023-05-09T01:57:39.289Z,100595.72
2023-05-09T01:59:45.168Z,100568.28
2023-05-09T02:01:48.550Z,100568.28
2023-05-09T02:03:53.272Z,100554.22
2023-05-09T02:05:57.231Z,100603.09
2023-05-09T02:07:59.888Z,100554.78
2023-05-09T02:10:05.566Z,100531.28
2023-05-09T02:12:08.565Z,100578.81
2023-05-09T02:14:11.291Z,100556.63
2023-05-09T02:16:15.067Z,100491.50
2023-05-09T02:18:17.994Z,100546.63
2023-05-09T02:20:20.785Z,100562.47
2023-05-09T02:22:23.568Z,100566.75
2023-05-09T02:24:27.207Z,100586.03
2023-05-09T02:26:31.101Z,100542.69
2023-05-09T02:28:34.818Z,100544.41
2023-05-09T02:30:41.199Z,100500.63
2023-05-09T02:32:47.742Z,100493.44
2023-05-09T02:34:53.564Z,100595.94
2023-05-09T02:36:56.373Z,100565.34
2023-05-09T02:38:59.409Z,100528.50
2023-05-09T02:41:02.500Z,100484.41
2023-05-09T02:43:05.172Z,100506.59
2023-05-09T02:45:09.488Z,100526.69
2023-05-09T02:47:12.047Z,100515.19
2023-05-09T02:49:26.806Z,100562.00
2023-05-09T02:51:34.608Z,100531.88
2023-05-09T02:53:37.493Z,100590.16
2023-05-09T02:55:39.975Z,100514.53
2023-05-09T02:57:42.555Z,100564.97
2023-05-09T02:59:46.162Z,100458.38
2023-05-09T03:01:48.797Z,100514.28
2023-05-09T03:03:51.739Z,100529.28
2023-05-09T03:05:55.548Z,100551.72
2023-05-09T03:07:58.287Z,100509.34
2023-05-09T03:10:01.376Z,100523.50
2023-05-09T03:12:06.348Z,100510.06
2023-05-09T03:14:09.404Z,100561.75
2023-05-09T03:16:15.732Z,100555.84
2023-05-09T03:18:19.412Z,100543.53
2023-05-09T03:20:21.681Z,100577.50
2023-05-09T03:22:24.966Z,100572.44
2023-05-09T03:24:32.766Z,100529.31
2023-05-09T03:26:38.170Z,100496.06
2023-05-09T03:28:41.065Z,100555.84
2023-05-09T03:30:43.942Z,100571.47
2023-05-09T03:32:49.892Z,100519.13
2023-05-09T03:34:52.589Z,100547.28
2023-05-09T03:36:55.742Z,100574.88
2023-05-09T03:38:59.000Z,100473.59
2023-05-09T03:41:01.743Z,100550.72
2023-05-09T03:43:04.354Z,100505.00
2023-05-09T03:45:07.251Z,100507.38
2023-05-09T03:47:09.918Z,100555.47
2023-05-09T03:49:15.655Z,100527.22
2023-05-09T03:51:19.929Z,100533.91
2023-05-09T03:53:22.701Z,100561.38
2023-05-09T03:55:26.630Z,100558.59
2023-05-09T03:57:29.288Z,100522.78
2023-05-09T03:59:33.097Z,100527.22
2023-05-09T04:01:37.305Z,100542.13
2023-05-09T04:03:42.342Z,100561.94
2023-05-09T04:05:46.464Z,100569.69
2023-05-09T04:07:58.707Z,100572.75
2023-05-09T04:10:01.546Z,100560.69
2023-05-09T04:12:04.805Z,100572.00
2023-05-09T04:14:08.090Z,100478.56
2023-05-09T04:16:12.390Z,100554.34
2023-05-09T04:18:15.940Z,100527.47
2023-05-09T04:20:18.730Z,100480.44
2023-05-09T04:22:21.958Z,100566.78
2023-05-09T04:24:26.339Z,100574.78
2023-05-09T04:26:30.371Z,100509.47
2023-05-09T04:28:35.062Z,100502.63
2023-05-09T04:30:37.927Z,100532.03
2023-05-09T04:32:40.733Z,100489.94
2023-05-09T04:34:43.266Z,100552.69
2023-05-09T04:36:52.423Z,100575.34
2023-05-09T04:38:55.250Z,100557.66
2023-05-09T04:41:01.800Z,100531.44
2023-05-09T04:43:04.533Z,100474.72
2023-05-09T04:45:08.749Z,100530.56
2023-05-09T04:47:11.903Z,100554.31
2023-05-09T04:49:14.454Z,100494.34
2023-05-09T04:51:17.907Z,100496.81
2023-05-09T04:53:20.859Z,100524.03
2023-05-09T04:55:24.384Z,100508.81
2023-05-09T04:57:27.560Z,100513.88
2023-05-09T04:59:33.924Z,100539.16
2023-05-09T05:01:36.835Z,100529.53
2023-05-09T05:03:39.529Z,100510.41
2023-05-09T05:05:42.767Z,100544.22
2023-05-09T05:07:45.218Z,100507.16
2023-05-09T05:09:53.141Z,100536.34
2023-05-09T05:12:01.142Z,100519.47
2023-05-09T05:14:06.211Z,100532.53
2023-05-09T05:16:10.365Z,100540.47
2023-05-09T05:18:13.027Z,100559.09
2023-05-09T05:20:16.176Z,100476.38
2023-05-09T05:22:21.621Z,100518.28
2023-05-09T05:24:24.415Z,100544.16
2023-05-09T05:26:27.874Z,100528.81
2023-05-09T05:28:31.159Z,100515.88
2023-05-09T05:30:34.589Z,100529.31
2023-05-09T05:32:38.920Z,100525.25
2023-05-09T05:34:41.858Z,100543.47
2023-05-09T05:36:44.756Z,100547.63
2023-05-09T05:38:48.116Z,100561.03
2023-05-09T05:40:50.794Z,100544.47
2023-05-09T05:42:54.701Z,100535.97
2023-05-09T05:44:58.602Z,100500.09
2023-05-09T05:47:01.714Z,100546.47
2023-05-09T05:49:04.473Z,100520.38
2023-05-09T05:51:09.303Z,100514.69
2023-05-09T05:53:12.148Z,100543.22
2023-05-09T05:55:14.895Z,100528.13
2023-05-09T05:57:17.510Z,100491.09
2023-05-09T05:59:20.776Z,100509.84
2023-05-09T06:01:24.651Z,100514.91
2023-05-09T06:03:27.568Z,100466.88
2023-05-09T06:05:37.551Z,100498.78
2023-05-09T06:07:48.411Z,100491.75
2023-05-09T06:09:51.740Z,100471.06
2023-05-09T06:11:54.529Z,100501.56
2023-05-09T06:13:56.839Z,100495.97
2023-05-09T06:16:07.830Z,100478.47
2023-05-09T06:18:18.406Z,100518.22
2023-05-09T06:20:21.874Z,100456.16
2023-05-09T06:22:24.419Z,100514.28
2023-05-09T06:24:35.570Z,100482.34
2023-05-09T06:26:39.319Z,100511.09
2023-05-09T06:28:42.062Z,100517.84
2023-05-09T06:30:44.446Z,100502.06
2023-05-09T06:32:46.808Z,100485.09
2023-05-09T06:34:49.512Z,100473.34
2023-05-09T06:36:52.356Z,100476.09
2023-05-09T06:38:54.918Z,100447.97
2023-05-09T06:40:57.391Z,100460.00
2023-05-09T06:43:00.030Z,100462.94
2023-05-09T06:45:02.789Z,100440.25
2023-05-09T06:47:07.081Z,100476.03
2023-05-09T06:49:09.700Z,100488.53
2023-05-09T06:51:12.333Z,100448.53
2023-05-09T06:53:15.634Z,100478.41
2023-05-09T06:55:18.386Z,100449.59
2023-05-09T06:57:20.952Z,100488.53
2023-05-09T06:59:23.842Z,100480.69
2023-05-09T07:01:26.747Z,100489.94
2023-05-09T07:03:29.401Z,100466.59
2023-05-09T07:05:32.380Z,100467.06
2023-05-09T07:07:34.879Z,100417.22
2023-05-09T07:09:37.189Z,100496.34
2023-05-09T07:11:39.637Z,100495.97
2023-05-09T07:13:42.010Z,100513.13
2023-05-09T07:15:45.186Z,100460.56
2023-05-09T07:17:48.249Z,100451.50
2023-05-09T07:19:52.045Z,100473.03
2023-05-09T07:21:54.797Z,100466.94
2023-05-09T07:23:57.907Z,100457.66
2023-05-09T07:26:01.762Z,100449.56
2023-05-09T07:28:04.921Z,100468.66
2023-05-09T07:30:09.600Z,100418.22
2023-05-09T07:32:12.461Z,100431.16
2023-05-09T07:34:17.205Z,100465.56
2023-05-09T07:36:19.693Z,100440.41
2023-05-09T07:38:21.985Z,100442.06
2023-05-09T07:40:24.231Z,100466.13
2023-05-09T07:42:26.688Z,100456.13
2023-05-09T07:44:29.081Z,100412.16
2023-05-09T07:46:31.547Z,100419.09
2023-05-09T07:48:34.282Z,100423.13
2023-05-09T07:50:37.492Z,100427.69
2023-05-09T07:52:40.114Z,100425.31
2023-05-09T07:54:42.580Z,100443.91
2023-05-09T07:56:46.154Z,100405.22
2023-05-09T07:58:48.914Z,100418.25
2023-05-09T08:00:51.513Z,100441.09
2023-05-09T08:02:54.865Z,100407.28
2023-05-09T08:04:58.017Z,100394.72
2023-05-09T08:07:04.886Z,100448.94
2023-05-09T08:09:07.177Z,100442.78
2023-05-09T08:11:09.874Z,100405.84
2023-05-09T08:13:12.816Z,100406.09
2023-05-09T08:15:16.947Z,100384.56
2023-05-09T08:17:19.871Z,100365.47
2023-05-09T08:19:24.913Z,100351.81
2023-05-09T08:21:27.443Z,100432.88
2023-05-09T08:23:30.759Z,100381.56
2023-05-09T08:25:33.682Z,100392.63
2023-05-09T08:27:36.594Z,100356.88
2023-05-09T08:29:39.993Z,100405.56
2023-05-09T08:31:43.023Z,100382.00
2023-05-09T08:33:45.595Z,100368.41
2023-05-09T08:35:55.099Z,100417.53
2023-05-09T08:37:57.878Z,100375.44
2023-05-09T08:40:00.500Z,100380.75
2023-05-09T08:42:04.326Z,100355.00
2023-05-09T08:44:07.912Z,100364.44
2023-05-09T08:46:11.993Z,100401.50
2023-05-09T08:48:17.261Z,100358.75
2023-05-09T08:50:21.965Z,100344.63
2023-05-09T08:52:25.434Z,100398.41
2023-05-09T08:54:29.517Z,100339.31
2023-05-09T08:56:32.282Z,100329.41
2023-05-09T08:58:35.145Z,100365.88
2023-05-09T09:00:39.454Z,100365.03
2023-05-09T09:02:42.721Z,100349.88
2023-05-09T09:04:45.763Z,100372.19
2023-05-09T09:06:49.167Z,100356.19
2023-05-09T09:08:55.259Z,100363.50
2023-05-09T09:10:58.422Z,100385.69
2023-05-09T09:13:05.385Z,100362.25
2023-05-09T09:15:16.285Z,100384.22
2023-05-09T09:17:21.905Z,100341.72
2023-05-09T09:19:30.558Z,100342.69
2023-05-09T09:21:33.945Z,100287.78
2023-05-09T09:23:40.722Z,100316.53
2023-05-09T09:25:45.939Z,100373.91
2023-05-09T09:27:48.764Z,100307.84
2023-05-09T09:29:51.517Z,100354.69
2023-05-09T09:31:55.518Z,100345.91
2023-05-09T09:34:03.066Z,100322.53
2023-05-09T09:36:06.579Z,100310.59
2023-05-09T09:38:09.662Z,100320.56
2023-05-09T09:40:15.184Z,100340.13
2023-05-09T09:42:18.626Z,100322.06
2023-05-09T09:44:22.934Z,100343.06
2023-05-09T09:46:25.505Z,100367.97
2023-05-09T09:48:34.451Z,100333.34
2023-05-09T09:50:37.378Z,100309.34
2023-05-09T09:52:51.048Z,100329.16
2023-05-09T09:54:57.664Z,100320.03
2023-05-09T09:57:00.054Z,100327.22
2023-05-09T09:59:12.698Z,100300.41
2023-05-09T10:01:17.025Z,100352.94
2023-05-09T10:03:19.615Z,100323.84
2023-05-09T10:05:35.089Z,100311.94
2023-05-09T10:07:37.924Z,100322.84
2023-05-09T10:09:42.046Z,100293.41
2023-05-09T10:11:49.447Z,100332.53
2023-05-09T10:13:53.157Z,100326.34
2023-05-09T10:15:58.630Z,100294.78
2023-05-09T10:18:04.851Z,100276.53
2023-05-09T10:20:09.629Z,100294.38
2023-05-09T10:22:16.187Z,100277.56
2023-05-09T10:24:27.690Z,100307.91
2023-05-09T10:26:32.914Z,100329.59
2023-05-09T10:28:39.397Z,100304.81
2023-05-09T10:30:46.634Z,100262.34
2023-05-09T10:32:59.810Z,100336.69
2023-05-09T10:35:07.432Z,100294.06
2023-05-09T10:37:10.379Z,100314.16
2023-05-09T10:39:14.637Z,100242.84
2023-05-09T10:41:19.038Z,100319.38
2023-05-09T10:43:25.598Z,100259.94
2023-05-09T10:45:28.732Z,100296.47
2023-05-09T10:47:33.743Z,100274.38
2023-05-09T10:49:37.355Z,100246.13
2023-05-09T10:51:40.730Z,100308.19
2023-05-09T10:53:49.083Z,100271.66
2023-05-09T10:55:56.128Z,100321.38
2023-05-09T10:58:19.980Z,100243.59
2023-05-09T11:00:25.475Z,100317.00
2023-05-09T11:02:32.916Z,100266.47
2023-05-09T11:04:35.711Z,100230.69
2023-05-09T11:06:49.709Z,100301.72
2023-05-09T11:08:54.882Z,100301.66
2023-05-09T11:11:01.424Z,100254.78
2023-05-09T11:13:04.556Z,100309.91
2023-05-09T11:15:09.480Z,100239.31
2023-05-09T11:17:23.848Z,100270.75
2023-05-09T11:19:59.464Z,100297.13
2023-05-09T11:22:05.232Z,100220.78
2023-05-09T11:24:17.531Z,100287.03
2023-05-09T11:26:23.916Z,100246.81
2023-05-09T11:28:35.164Z,100289.38
2023-05-09T11:30:44.187Z,100255.41
2023-05-09T11:32:58.463Z,100254.78
2023-05-09T11:35:27.724Z,100275.25
2023-05-09T11:37:33.278Z,100241.16
2023-05-09T11:39:36.914Z,100267.91
2023-05-09T11:41:42.004Z,100230.59
2023-05-09T11:43:45.569Z,100192.28
2023-05-09T11:45:48.200Z,100195.94
2023-05-09T11:47:51.886Z,100222.94
2023-05-09T11:49:54.667Z,100223.94
2023-05-09T11:52:00.242Z,100234.81
2023-05-09T11:54:02.943Z,100202.59
2023-05-09T11:56:06.818Z,100224.19
2023-05-09T11:58:10.020Z,100217.66
2023-05-09T12:00:13.036Z,100206.88
2023-05-09T12:02:16.220Z,100192.81
2023-05-09T12:04:18.999Z,100210.25
2023-05-09T12:06:21.810Z,100219.53
2023-05-09T12:08:28.919Z,100225.22
2023-05-09T12:10:31.237Z,100216.59
2023-05-09T12:12:42.023Z,100218.91
2023-05-09T12:14:44.260Z,100201.69
2023-05-09T12:16:47.073Z,100215.69
2023-05-09T12:18:52.239Z,100198.69
2023-05-09T12:20:55.280Z,100196.41
2023-05-09T12:22:57.822Z,100173.28
2023-05-09T12:25:06.052Z,100177.81
2023-05-09T12:27:09.153Z,100171.88
2023-05-09T12:29:13.404Z,100131.72
2023-05-09T12:31:17.813Z,100165.28
2023-05-09T12:33:21.728Z,100156.00
2023-05-09T12:35:26.276Z,100164.41
2023-05-09T12:37:32.808Z,100204.38
2023-05-09T12:39:35.194Z,100158.03
2023-05-09T12:41:57.385Z,100192.91
2023-05-09T12:44:04.007Z,100094.03
2023-05-09T12:46:06.700Z,100149.16
2023-05-09T12:48:09.832Z,100157.00
2023-05-09T12:50:15.605Z,100145.09
2023-05-09T12:52:20.803Z,100132.91
2023-05-09T12:54:28.548Z,100097.56
2023-05-09T12:56:35.770Z,100135.06
2023-05-09T12:58:39.012Z,100163.03
2023-05-09T13:00:44.122Z,100125.34
2023-05-09T13:02:51.289Z,100136.03
2023-05-09T13:05:11.502Z,100141.00
2023-05-09T13:07:14.396Z,100135.94
2023-05-09T13:09:18.691Z,100154.72
2023-05-09T13:11:21.329Z,100124.59
2023-05-09T13:13:29.118Z,100123.97
2023-05-09T13:15:31.531Z,100120.50
2023-05-09T13:17:34.134Z,100118.13
2023-05-09T13:19:39.696Z,100107.94
2023-05-09T13:21:42.452Z,100129.56
2023-05-09T13:23:46.011Z,100134.81
2023-05-09T13:25:48.474Z,100128.66
2023-05-09T13:27:51.575Z,100122.53
2023-05-09T13:29:54.931Z,100115.66
2023-05-09T13:31:57.341Z,100113.09
2023-05-09T13:33:59.696Z,100092.81
2023-05-09T13:36:04.092Z,100085.56
2023-05-09T13:38:06.727Z,100073.88
2023-05-09T13:40:10.576Z,100098.41
2023-05-09T13:42:13.272Z,100086.81
2023-05-09T13:44:16.543Z,100067.47
2023-05-09T13:46:19.413Z,100088.66
2023-05-09T13:48:21.932Z,100105.94
2023-05-09T13:50:24.656Z,100030.91
2023-05-09T13:52:27.498Z,100073.31
2023-05-09T13:54:35.663Z,100079.88
2023-05-09T13:56:41.407Z,100055.31
2023-05-09T13:58:44.266Z,100063.50
2023-05-09T14:00:46.972Z,100047.63
2023-05-09T14:02:49.743Z,100075.56
2023-05-09T14:04:52.300Z,100076.41
2023-05-09T14:06:55.398Z,100071.63
2023-05-09T14:08:58.097Z,99992.94
2023-05-09T14:11:00.492Z,100003.69
2023-05-09T14:13:02.956Z,100061.31
2023-05-09T14:15:08.105Z,100054.50
2023-05-09T14:17:10.528Z,100048.31
2023-05-09T14:19:15.544Z,100050.56
2023-05-09T14:21:18.079Z,100019.72
2023-05-09T14:23:20.877Z,100054.47
2023-05-09T14:25:23.362Z,100061.50
2023-05-09T14:27:26.508Z,100012.69
2023-05-09T14:29:29.079Z,100022.53
2023-05-09T14:31:32.635Z,100033.25
2023-05-09T14:33:36.308Z,100027.66
2023-05-09T14:35:41.033Z,100058.59
2023-05-09T14:37:44.877Z,100016.50
2023-05-09T14:39:47.320Z,100020.78
2023-05-09T14:41:50.907Z,99989.41
2023-05-09T14:43:53.951Z,100035.41
2023-05-09T14:45:58.198Z,100009.72
2023-05-09T14:48:00.928Z,99977.41
2023-05-09T14:50:04.192Z,100006.31
2023-05-09T14:52:07.053Z,100011.47
2023-05-09T14:54:10.132Z,100033.22
2023-05-09T14:56:12.520Z,100002.47
2023-05-09T14:58:16.427Z,100003.53
2023-05-09T15:00:21.966Z,100006.31
2023-05-09T15:02:24.964Z,99975.41
2023-05-09T15:04:31.037Z,99966.88
2023-05-09T15:06:34.248Z,100002.59
2023-05-09T15:08:37.145Z,99992.53
2023-05-09T15:10:40.206Z,99988.94
2023-05-09T15:12:43.631Z,99991.22
2023-05-09T15:14:46.167Z,99971.47
2023-05-09T15:16:48.733Z,99918.97
2023-05-09T15:18:51.605Z,100019.84
2023-05-09T15:20:54.384Z,99983.25
2023-05-09T15:22:56.894Z,99948.34
2023-05-09T15:25:00.158Z,99989.78
2023-05-09T15:27:02.994Z,99984.72
2023-05-09T15:29:05.478Z,99909.50
2023-05-09T15:31:08.780Z,99935.50
2023-05-09T15:33:12.400Z,99986.94
2023-05-09T15:35:17.113Z,99903.97
2023-05-09T15:37:19.710Z,99968.47
2023-05-09T15:39:23.165Z,99956.22
2023-05-09T15:41:26.469Z,99965.81
2023-05-09T15:43:29.499Z,99952.84
2023-05-09T15:45:32.670Z,99943.56
2023-05-09T15:47:35.403Z,99951.78
2023-05-09T15:49:38.240Z,99939.84
2023-05-09T15:51:41.081Z,99944.75
2023-05-09T15:53:43.805Z,99955.84
2023-05-09T15:55:46.664Z,99945.75
2023-05-09T15:57:49.329Z,99940.53
2023-05-09T15:59:54.708Z,99952.81
2023-05-09T16:01:57.271Z,99910.47
2023-05-09T16:04:01.111Z,99923.72
2023-05-09T16:06:04.794Z,99908.84
2023-05-09T16:08:07.274Z,99948.22
2023-05-09T16:10:10.809Z,99952.16
2023-05-09T16:12:14.869Z,99968.84
2023-05-09T16:14:18.180Z,99937.47
2023-05-09T16:16:21.103Z,99884.00
2023-05-09T16:18:23.810Z,99929.44
2023-05-09T16:20:27.274Z,99921.28
2023-05-09T16:22:30.531Z,99898.88
2023-05-09T16:24:33.446Z,99933.88
2023-05-09T16:26:37.265Z,99873.19
2023-05-09T16:28:40.696Z,99943.16
2023-05-09T16:30:43.524Z,99913.72
2023-05-09T16:32:46.283Z,99899.63
2023-05-09T16:34:49.719Z,99900.25
2023-05-09T16:36:52.636Z,99910.72
2023-05-09T16:38:55.251Z,99908.59
2023-05-09T16:40:57.744Z,99891.41
2023-05-09T16:43:00.423Z,99826.75
2023-05-09T16:45:03.177Z,99902.66
2023-05-09T16:47:06.382Z,99838.34
2023-05-09T16:49:09.058Z,99840.56
2023-05-09T16:51:11.908Z,99910.59
2023-05-09T16:53:15.030Z,99852.34
2023-05-09T16:55:17.873Z,99812.78
2023-05-09T16:57:20.936Z,99850.19
2023-05-09T16:59:23.409Z,99861.63
2023-05-09T17:01:26.594Z,99878.16
2023-05-09T17:03:29.656Z,99827.25
2023-05-09T17:05:32.844Z,99857.00
2023-05-09T17:07:41.337Z,99879.69
2023-05-09T17:09:48.660Z,99892.13
2023-05-09T17:11:51.567Z,99792.66
2023-05-09T17:13:54.364Z,99886.34
2023-05-09T17:15:57.523Z,99871.09
2023-05-09T17:18:01.595Z,99844.06
2023-05-09T17:20:07.614Z,99820.06
2023-05-09T17:22:11.002Z,99846.06
2023-05-09T17:24:14.258Z,99840.97
2023-05-09T17:26:18.050Z,99857.34
2023-05-09T17:28:20.496Z,99825.72
2023-05-09T17:30:23.509Z,99821.38
2023-05-09T17:32:26.485Z,99829.38
2023-05-09T17:34:29.610Z,99866.81
2023-05-09T17:36:32.877Z,99879.34
2023-05-09T17:38:35.651Z,99841.31
2023-05-09T17:40:38.628Z,99847.78
2023-05-09T17:42:41.290Z,99848.75
2023-05-09T17:44:44.505Z,99846.53
2023-05-09T17:46:49.675Z,99860.91
2023-05-09T17:48:52.261Z,99887.97
2023-05-09T17:50:55.119Z,99838.78
2023-05-09T17:52:57.844Z,99875.63
2023-05-09T17:55:02.171Z,99883.75
2023-05-09T17:57:05.789Z,99820.53
2023-05-09T17:59:08.794Z,99838.31
2023-05-09T18:01:12.738Z,99870.13
2023-05-09T18:03:16.825Z,99841.72
2023-05-09T18:05:19.843Z,99873.50
2023-05-09T18:07:23.320Z,99802.31
2023-05-09T18:09:26.102Z,99788.97
2023-05-09T18:11:28.701Z,99877.06
2023-05-09T18:13:32.007Z,99846.66
2023-05-09T18:15:38.535Z,99848.44
2023-05-09T18:17:41.166Z,99891.50
2023-05-09T18:19:45.328Z,99845.63
2023-05-09T18:21:48.174Z,99849.16
2023-05-09T18:23:50.784Z,99870.94
2023-05-09T18:25:55.528Z,99828.72
2023-05-09T18:27:59.098Z,99847.03
2023-05-09T18:30:01.683Z,99882.28
2023-05-09T18:32:05.089Z,99829.88
2023-05-09T18:34:09.847Z,99840.69
2023-05-09T18:36:12.754Z,99872.38
2023-05-09T18:38:16.054Z,99877.72
2023-05-09T18:40:18.641Z,99781.84
2023-05-09T18:42:21.402Z,99860.38
2023-05-09T18:44:24.232Z,99851.41
2023-05-09T18:46:28.222Z,99853.19
2023-05-09T18:48:32.573Z,99871.50
2023-05-09T18:50:35.408Z,99875.75
2023-05-09T18:52:38.105Z,99836.00
2023-05-09T18:54:41.729Z,99806.97
2023-05-09T18:56:44.460Z,99879.72
2023-05-09T18:58:49.260Z,99888.88
2023-05-09T19:00:53.450Z,99859.91
2023-05-09T19:02:56.247Z,99781.84
2023-05-09T19:05:01.043Z,99855.75
2023-05-09T19:07:04.251Z,99840.56
2023-05-09T19:09:07.832Z,99837.72
2023-05-09T19:11:12.115Z,99853.31
2023-05-09T19:13:16.473Z,99834.84
2023-05-09T19:15:20.237Z,99839.09
2023-05-09T19:17:22.973Z,99869.69
2023-05-09T19:19:26.836Z,99844.28
2023-05-09T19:21:30.221Z,99899.66
2023-05-09T19:23:32.788Z,99851.91
2023-05-09T19:25:37.173Z,99842.47
2023-05-09T19:27:40.196Z,99865.84
2023-05-09T19:29:42.677Z,99844.09
2023-05-09T19:31:46.173Z,99824.94
2023-05-09T19:33:49.904Z,99777.75
2023-05-09T19:35:52.469Z,99817.25
2023-05-09T19:37:55.568Z,99835.44
2023-05-09T19:39:59.344Z,99783.78
2023-05-09T19:42:01.949Z,99881.53
2023-05-09T19:44:04.576Z,99829.66
2023-05-09T19:46:07.456Z,99829.25
2023-05-09T19:48:15.768Z,99827.84
2023-05-09T19:50:19.171Z,99857.78
2023-05-09T19:52:22.002Z,99828.97
2023-05-09T19:54:27.760Z,99817.59
2023-05-09T19:56:30.632Z,99841.91
2023-05-09T19:58:33.689Z,99806.69
2023-05-09T20:00:36.567Z,99793.69
2023-05-09T20:02:39.895Z,99811.47
2023-05-09T20:04:47.529Z,99818.81
2023-05-09T20:06:50.902Z,99841.72
2023-05-09T20:08:53.894Z,99863.81
2023-05-09T20:10:58.021Z,99834.91
2023-05-09T20:13:01.416Z,99837.34
2023-05-09T20:15:07.238Z,99784.75
2023-05-09T20:17:09.762Z,99842.03
2023-05-09T20:19:14.650Z,99822.66
2023-05-09T20:21:17.543Z,99826.09
2023-05-09T20:23:19.843Z,99830.34
2023-05-09T20:25:22.820Z,99806.38
2023-05-09T20:27:26.631Z,99809.22
2023-05-09T20:29:29.471Z,99747.88
2023-05-09T20:31:32.662Z,99746.88
2023-05-09T20:33:35.517Z,99846.22
2023-05-09T20:35:40.093Z,99837.44
2023-05-09T20:37:43.397Z,99856.47
2023-05-09T20:39:46.717Z,99853.31
2023-05-09T20:41:50.459Z,99861.00
2023-05-09T20:43:53.060Z,99807.97
2023-05-09T20:45:55.871Z,99816.44
2023-05-09T20:47:59.532Z,99819.72
2023-05-09T20:50:02.078Z,99827.47
2023-05-09T20:52:05.001Z,99845.53
2023-05-09T20:54:08.022Z,99832.66
2023-05-09T20:56:10.800Z,99846.59
2023-05-09T20:58:15.354Z,99811.75
2023-05-09T21:00:17.865Z,99827.13
2023-05-09T21:02:20.774Z,99831.88
2023-05-09T21:04:23.818Z,99822.97
2023-05-09T21:06:26.513Z,99828.69
2023-05-09T21:08:28.762Z,99815.81
2023-05-09T21:10:31.692Z,99771.16
2023-05-09T21:12:34.493Z,99799.38
2023-05-09T21:14:37.339Z,99775.50
2023-05-09T21:16:40.057Z,99788.06
2023-05-09T21:18:42.437Z,99870.53
2023-05-09T21:20:45.514Z,99761.56
2023-05-09T21:22:48.135Z,99802.44
2023-05-09T21:24:51.210Z,99774.34
2023-05-09T21:26:53.591Z,99832.38
2023-05-09T21:28:56.652Z,99777.72
2023-05-09T21:31:02.014Z,99758.38
2023-05-09T21:33:04.843Z,99819.59
2023-05-09T21:35:11.170Z,99750.06
2023-05-09T21:37:13.346Z,99762.25
2023-05-09T21:39:16.584Z,99802.75
2023-05-09T21:41:18.866Z,99735.38
2023-05-09T21:43:21.506Z,99778.22
2023-05-09T21:45:23.979Z,99838.34
2023-05-09T21:47:26.598Z,99770.94
2023-05-09T21:49:29.553Z,99836.22
2023-05-09T21:51:33.648Z,99739.34
2023-05-09T21:53:36.465Z,99765.72
2023-05-09T21:55:38.975Z,99839.47
2023-05-09T21:57:41.680Z,99750.25
2023-05-09T21:59:44.433Z,99768.75
2023-05-09T22:01:47.149Z,99795.31
2023-05-09T22:03:49.948Z,99802.38
2023-05-09T22:05:52.708Z,99804.22
2023-05-09T22:07:55.832Z,99778.75
2023-05-09T22:09:58.330Z,99807.19
2023-05-09T22:12:00.899Z,99759.13
2023-05-09T22:14:03.774Z,99791.53
2023-05-09T22:16:07.359Z,99730.91
2023-05-09T22:18:09.763Z,99774.22
2023-05-09T22:20:12.993Z,99751.44
2023-05-09T22:22:15.517Z,99795.13
2023-05-09T22:24:17.750Z,99815.47
2023-05-09T22:26:20.147Z,99772.50
2023-05-09T22:28:22.569Z,99824.38
2023-05-09T22:30:25.398Z,99775.88
2023-05-09T22:32:28.492Z,99814.75
2023-05-09T22:34:31.362Z,99788.22
2023-05-09T22:36:33.832Z,99802.38
2023-05-09T22:38:36.153Z,99826.81
2023-05-09T22:40:38.710Z,99801.91
2023-05-09T22:42:41.025Z,99763.56
2023-05-09T22:44:43.949Z,99799.44
2023-05-09T22:46:46.617Z,99781.44
2023-05-09T22:48:49.360Z,99810.34
2023-05-09T22:50:52.356Z,99802.22
2023-05-09T22:52:55.003Z,99768.38
2023-05-09T22:54:57.490Z,99751.81
2023-05-09T22:57:00.042Z,99795.63
2023-05-09T22:59:03.363Z,99729.59
2023-05-09T23:01:05.836Z,99776.47
2023-05-09T23:03:08.521Z,99793.03
2023-05-09T23:05:11.050Z,99782.00
2023-05-09T23:07:13.550Z,99799.09
2023-05-09T23:09:16.330Z,99760.88
2023-05-09T23:11:18.511Z,99755.13
2023-05-09T23:13:21.554Z,99799.50
2023-05-09T23:15:24.102Z,99804.19
2023-05-09T23:17:26.473Z,99820.41
2023-05-09T23:19:28.743Z,99795.94
2023-05-09T23:21:31.141Z,99768.41
2023-05-09T23:23:33.868Z,99790.63
2023-05-09T23:25:36.859Z,99777.44
2023-05-09T23:27:41.242Z,99693.75
2023-05-09T23:29:43.952Z,99742.78
2023-05-09T23:31:46.334Z,99727.28
2023-05-09T23:33:49.304Z,99795.09
2023-05-09T23:35:51.693Z,99725.00
2023-05-09T23:37:54.144Z,99756.00
2023-05-09T23:39:56.780Z,99782.13
2023-05-09T23:41:59.256Z,99744.19
2023-05-09T23:44:03.729Z,99708.31
2023-05-09T23:46:06.188Z,99776.09
2023-05-09T23:48:08.790Z,99774.66
2023-05-09T23:50:12.269Z,99703.50
2023-05-09T23:52:15.586Z,99697.53